Time;durP1;ratioP1;P1;durP2;ratioP2;P2;SDS_P1;SDS_P2;PMS_P1;PMS_P2;Temp;Humidity;BMP_temperature;BMP_pressure;BME280_temperature;BME280_humidity;BME280_pressure;Samples;Min_cycle;Max_cycle;Signal;HPM_P1;HPM_P2
2021/12/29 00:01:38;;;;;;;21.17;13.33;;;6.20;99.90;;;;;;4975155;28;20053;-28
2021/12/29 00:04:04;;;;;;;20.00;12.30;;;6.20;99.90;;;;;;4973956;28;20526;-28
2021/12/29 00:06:30;;;;;;;16.90;11.27;;;6.30;99.90;;;;;;4977829;28;20560;-29
2021/12/29 00:08:56;;;;;;;18.67;11.47;;;6.20;99.90;;;;;;4988563;28;20050;-28
2021/12/29 00:11:22;;;;;;;18.07;11.33;;;6.20;99.90;;;;;;4954335;28;20216;-29
2021/12/29 00:13:48;;;;;;;17.20;11.00;;;6.20;99.90;;;;;;4970237;28;20415;-28
2021/12/29 00:16:13;;;;;;;18.00;10.77;;;6.20;99.90;;;;;;4980604;28;20042;-29
2021/12/29 00:18:39;;;;;;;17.43;11.13;;;6.20;99.90;;;;;;4983115;28;20553;-28
2021/12/29 00:21:06;;;;;;;20.87;11.00;;;6.30;99.90;;;;;;4990782;28;20050;-29
2021/12/29 00:23:32;;;;;;;21.60;11.10;;;6.30;99.90;;;;;;4962741;28;20396;-28
2021/12/29 00:25:58;;;;;;;19.47;10.83;;;6.20;99.90;;;;;;4971061;28;20050;-29
2021/12/29 00:28:23;;;;;;;17.97;11.00;;;6.20;99.90;;;;;;4937363;28;20057;-29
2021/12/29 00:30:50;;;;;;;20.37;11.20;;;6.20;99.90;;;;;;4953706;28;20045;-29
2021/12/29 00:33:16;;;;;;;20.97;11.17;;;6.20;99.90;;;;;;4969937;28;20126;-29
2021/12/29 00:35:42;;;;;;;28.43;13.23;;;6.20;99.90;;;;;;4986825;28;20478;-28
2021/12/29 00:38:10;;;;;;;32.90;13.40;;;6.30;99.90;;;;;;4974831;28;20046;-28
2021/12/29 00:40:36;;;;;;;27.27;13.23;;;6.30;99.90;;;;;;4990780;28;20073;-28
2021/12/29 00:43:05;;;;;;;32.53;15.13;;;6.20;99.90;;;;;;4989312;28;20061;-29
2021/12/29 00:45:33;;;;;;;26.60;14.43;;;6.30;99.90;;;;;;4990341;28;20050;-29
2021/12/29 00:47:59;;;;;;;37.53;15.90;;;6.30;99.90;;;;;;4989118;28;20078;-29
2021/12/29 00:50:26;;;;;;;38.37;16.43;;;6.30;99.90;;;;;;4991463;28;20058;-29
2021/12/29 00:52:52;;;;;;;35.43;16.90;;;6.30;99.90;;;;;;5008949;28;20192;-29
2021/12/29 00:55:18;;;;;;;41.93;18.27;;;6.30;99.90;;;;;;5009364;28;20057;-28
2021/12/29 00:57:44;;;;;;;42.60;19.07;;;6.30;99.90;;;;;;4993432;28;20049;-28
2021/12/29 01:00:15;;;;;;;37.20;18.03;;;6.30;99.90;;;;;;5010603;28;20444;-29
2021/12/29 01:02:41;;;;;;;36.95;18.30;;;6.30;99.90;;;;;;5008961;28;20046;-29
2021/12/29 01:05:09;;;;;;;46.20;19.27;;;6.30;99.90;;;;;;4963013;28;20060;-29
2021/12/29 01:07:35;;;;;;;41.40;19.53;;;6.30;99.90;;;;;;4973583;28;20474;-29
2021/12/29 01:10:04;;;;;;;38.87;19.07;;;6.30;99.90;;;;;;4997829;28;20123;-29
2021/12/29 01:12:29;;;;;;;40.03;18.73;;;6.30;99.90;;;;;;4989351;28;20089;-29
2021/12/29 01:14:56;;;;;;;41.77;19.33;;;6.30;99.90;;;;;;4997664;28;20082;-29
2021/12/29 01:17:23;;;;;;;37.07;19.53;;;6.40;99.90;;;;;;4992837;28;20046;-30
2021/12/29 01:19:50;;;;;;;41.73;20.23;;;6.40;99.90;;;;;;5009055;28;20041;-29
2021/12/29 01:22:16;;;;;;;48.07;19.93;;;6.30;99.90;;;;;;5008703;28;20056;-29
2021/12/29 01:24:46;;;;;;;48.40;21.07;;;6.40;99.90;;;;;;4989540;28;20409;-29
2021/12/29 01:27:13;;;;;;;50.00;22.43;;;6.50;99.90;;;;;;4973577;28;20057;-29
2021/12/29 01:29:39;;;;;;;48.33;21.70;;;6.40;99.90;;;;;;4955784;28;20221;-28
2021/12/29 01:32:05;;;;;;;49.57;23.10;;;6.50;99.90;;;;;;4988803;28;20050;-29
2021/12/29 01:34:31;;;;;;;42.67;21.20;;;6.50;99.90;;;;;;4986812;28;20066;-29
2021/12/29 01:36:56;;;;;;;41.60;20.80;;;6.50;99.90;;;;;;4973515;28;20529;-29
2021/12/29 01:39:23;;;;;;;61.33;23.40;;;6.50;99.90;;;;;;4989150;28;20046;-29
2021/12/29 01:41:51;;;;;;;53.40;23.10;;;6.50;99.90;;;;;;4989206;28;20101;-29
2021/12/29 01:44:21;;;;;;;49.73;21.83;;;6.50;99.90;;;;;;4988003;28;20101;-29
2021/12/29 01:46:47;;;;;;;56.80;22.47;;;6.50;99.90;;;;;;4979331;28;20046;-29
2021/12/29 01:49:13;;;;;;;48.77;23.03;;;6.50;99.90;;;;;;5007274;28;20113;-29
2021/12/29 01:51:48;;;;;;;44.30;22.43;;;6.60;99.90;;;;;;5008174;28;20527;-29
2021/12/29 01:54:16;;;;;;;52.17;23.43;;;6.50;99.90;;;;;;4991295;28;20058;-29
2021/12/29 01:56:45;;;;;;;50.93;23.10;;;6.60;99.90;;;;;;4988843;28;20109;-29
2021/12/29 01:59:12;;;;;;;51.47;23.93;;;6.50;99.90;;;;;;4970415;28;20410;-29
2021/12/29 02:01:38;;;;;;;52.27;23.57;;;6.50;99.90;;;;;;5003116;28;20487;-28
2021/12/29 02:04:03;;;;;;;55.70;24.00;;;6.60;99.90;;;;;;5003867;28;20042;-29
2021/12/29 02:06:29;;;;;;;56.10;23.87;;;6.60;99.90;;;;;;4976000;28;20054;-29
2021/12/29 02:08:56;;;;;;;45.53;22.13;;;6.60;99.90;;;;;;4985767;28;20046;-29
2021/12/29 02:11:28;;;;;;;49.90;23.43;;;6.60;99.90;;;;;;4997661;28;20061;-28
2021/12/29 02:14:05;;;;;;;44.00;21.03;;;6.60;99.90;;;;;;4988053;28;20046;-29
2021/12/29 02:16:31;;;;;;;41.83;20.80;;;6.60;99.90;;;;;;4976979;28;20152;-29
2021/12/29 02:19:00;;;;;;;39.40;19.17;;;6.70;99.90;;;;;;5005740;28;20042;-29
2021/12/29 02:21:28;;;;;;;36.03;17.20;;;6.70;99.90;;;;;;5003790;28;20581;-29
2021/12/29 02:24:15;;;;;;;40.97;16.40;;;6.70;99.90;;;;;;4982686;28;20038;-29
2021/12/29 02:26:40;;;;;;;37.80;15.57;;;6.70;99.90;;;;;;4974365;28;20125;-29
2021/12/29 02:29:09;;;;;;;34.60;15.20;;;6.70;99.90;;;;;;4986060;28;20486;-29
2021/12/29 02:31:36;;;;;;;40.40;14.80;;;6.70;99.90;;;;;;4988517;28;20532;-29
2021/12/29 02:34:04;;;;;;;34.33;14.97;;;6.70;99.90;;;;;;4987487;28;20430;-29
2021/12/29 02:36:30;;;;;;;37.00;15.53;;;6.70;99.90;;;;;;4957630;28;20550;-29
2021/12/29 02:38:56;;;;;;;33.47;14.53;;;6.70;99.90;;;;;;4967354;28;20058;-29
2021/12/29 02:41:27;;;;;;;36.50;15.50;;;6.80;99.90;;;;;;4969411;28;20307;-28
2021/12/29 02:44:00;;;;;;;43.20;16.43;;;6.70;99.90;;;;;;4950857;28;20065;-29
2021/12/29 02:46:27;;;;;;;43.33;16.17;;;6.80;99.90;;;;;;4959685;28;20479;-29
2021/12/29 02:48:59;;;;;;;40.87;15.30;;;6.70;99.90;;;;;;4966993;28;20383;-29
2021/12/29 02:51:25;;;;;;;36.70;15.48;;;6.70;99.90;;;;;;4987906;28;20490;-29
2021/12/29 02:53:51;;;;;;;36.27;14.50;;;6.80;99.90;;;;;;4987579;28;20077;-29
2021/12/29 02:56:17;;;;;;;40.03;15.80;;;6.80;99.90;;;;;;4974959;28;20512;-29
2021/12/29 02:58:43;;;;;;;36.03;15.73;;;6.80;99.90;;;;;;4963519;28;20457;-28
2021/12/29 03:01:11;;;;;;;37.73;14.63;;;6.80;99.90;;;;;;4971188;28;20121;-29
2021/12/29 03:03:37;;;;;;;35.47;14.60;;;6.80;99.90;;;;;;4967707;28;20081;-29
2021/12/29 03:06:05;;;;;;;34.03;14.57;;;6.80;99.90;;;;;;4988150;28;20294;-29
2021/12/29 03:08:30;;;;;;;32.97;15.87;;;6.80;99.90;;;;;;4955034;28;20121;-29
2021/12/29 03:10:56;;;;;;;27.13;14.70;;;6.80;99.90;;;;;;4979149;28;20129;-29
2021/12/29 03:13:29;;;;;;;38.27;16.13;;;6.80;99.90;;;;;;4969708;28;20061;-29
2021/12/29 03:15:55;;;;;;;37.70;16.93;;;6.90;99.90;;;;;;4974190;28;20429;-29
2021/12/29 03:18:21;;;;;;;40.93;17.47;;;6.90;99.90;;;;;;4941700;28;20043;-29
2021/12/29 03:20:48;;;;;;;41.60;18.10;;;6.90;99.90;;;;;;4974190;28;20053;-29
2021/12/29 03:23:15;;;;;;;40.33;18.27;;;6.90;99.90;;;;;;4983533;28;20137;-29
2021/12/29 03:25:41;;;;;;;35.87;17.23;;;6.90;99.90;;;;;;4983439;28;20107;-29
2021/12/29 03:28:07;;;;;;;43.37;18.03;;;6.90;99.90;;;;;;4957608;28;20070;-29
2021/12/29 03:30:36;;;;;;;41.70;18.00;;;6.90;99.90;;;;;;4973702;28;20081;-28
2021/12/29 03:33:07;;;;;;;41.20;19.50;;;7.00;99.90;;;;;;4990823;28;20058;-29
2021/12/29 03:35:48;;;;;;;45.50;19.07;;;7.00;99.90;;;;;;5001997;28;20531;-29
2021/12/29 03:38:20;;;;;;;39.35;19.38;;;7.00;99.90;;;;;;4995460;28;20082;-29
2021/12/29 03:40:46;;;;;;;42.83;19.10;;;7.00;99.90;;;;;;5011265;28;20068;-28
2021/12/29 03:43:12;;;;;;;40.87;18.27;;;7.00;99.90;;;;;;5010076;28;20104;-29
2021/12/29 03:45:41;;;;;;;46.63;18.73;;;7.00;99.90;;;;;;4993266;28;20045;-29
2021/12/29 03:48:09;;;;;;;40.13;18.63;;;7.00;99.90;;;;;;4976468;28;20246;-29
2021/12/29 03:50:35;;;;;;;39.17;19.70;;;7.00;99.90;;;;;;4993047;28;20053;-29
2021/12/29 03:53:01;;;;;;;38.70;18.37;;;7.00;99.90;;;;;;5009774;28;20472;-29
2021/12/29 03:55:27;;;;;;;43.93;18.80;;;7.00;99.90;;;;;;5010736;28;20536;-29
2021/12/29 03:57:52;;;;;;;40.23;17.57;;;7.00;99.90;;;;;;4978839;28;20052;-29
2021/12/29 04:00:19;;;;;;;40.93;18.00;;;7.10;99.90;;;;;;4977200;28;20048;-29
2021/12/29 04:02:45;;;;;;;37.07;18.27;;;7.10;99.90;;;;;;5009543;28;20042;-29
2021/12/29 04:05:14;;;;;;;39.10;17.13;;;7.10;99.90;;;;;;5010321;28;20436;-30
2021/12/29 04:07:40;;;;;;;40.10;18.10;;;7.10;99.90;;;;;;4976138;28;20624;-29
2021/12/29 04:10:08;;;;;;;42.47;18.33;;;7.00;99.90;;;;;;5019469;28;20080;-29
2021/12/29 04:12:34;;;;;;;34.00;18.07;;;7.10;99.90;;;;;;4991951;28;20046;-29
2021/12/29 04:14:59;;;;;;;31.43;17.53;;;7.10;99.90;;;;;;5009784;28;20523;-29
2021/12/29 04:17:30;;;;;;;33.73;18.33;;;7.10;99.90;;;;;;4993959;28;20223;-29
2021/12/29 04:22:40;;;;;;;37.87;18.00;;;7.10;99.90;;;;;;5006623;28;20048;-29
2021/12/29 04:25:06;;;;;;;35.00;19.13;;;7.20;99.90;;;;;;4990060;28;20034;-29
2021/12/29 04:27:32;;;;;;;31.60;19.00;;;7.10;99.90;;;;;;4973844;28;20041;-29
2021/12/29 04:29:58;;;;;;;35.93;18.70;;;7.10;99.90;;;;;;4990286;28;20054;-29
2021/12/29 04:32:24;;;;;;;40.37;19.17;;;7.10;99.90;;;;;;4989914;28;20357;-29
2021/12/29 04:34:49;;;;;;;36.07;20.03;;;7.10;99.90;;;;;;4985284;28;20606;-29
2021/12/29 04:37:15;;;;;;;32.73;19.30;;;7.10;99.90;;;;;;4971718;28;20081;-28
2021/12/29 04:39:41;;;;;;;35.87;20.50;;;7.10;99.90;;;;;;4990109;28;20125;-29
2021/12/29 04:42:07;;;;;;;35.73;19.27;;;7.20;99.90;;;;;;4989334;28;20057;-30
2021/12/29 04:44:32;;;;;;;37.87;18.43;;;7.20;99.90;;;;;;4972630;28;20066;-29
2021/12/29 04:46:58;;;;;;;34.67;18.77;;;7.20;99.90;;;;;;4964213;28;20045;-29
2021/12/29 04:49:28;;;;;;;41.50;18.13;;;7.10;99.90;;;;;;5008571;28;20076;-29
2021/12/29 04:52:02;;;;;;;40.97;18.10;;;7.20;99.90;;;;;;5009872;28;20050;-29
2021/12/29 04:54:29;;;;;;;41.57;17.77;;;7.20;99.90;;;;;;4990995;28;20058;-29
2021/12/29 04:56:55;;;;;;;33.90;16.87;;;7.20;99.90;;;;;;4968582;28;20065;-29
2021/12/29 04:59:22;;;;;;;34.40;16.40;;;7.20;99.90;;;;;;4989206;28;20042;-29
2021/12/29 05:01:48;;;;;;;36.70;17.77;;;7.20;99.90;;;;;;5010811;28;20057;-29
2021/12/29 05:04:20;;;;;;;34.23;17.90;;;7.20;99.90;;;;;;5002613;28;20042;-29
2021/12/29 05:09:31;;;;;;;34.27;18.30;;;7.30;99.90;;;;;;4996977;28;20128;-29
2021/12/29 05:12:00;;;;;;;38.60;17.77;;;7.30;99.90;;;;;;4999590;28;20134;-29
2021/12/29 05:14:26;;;;;;;35.23;18.47;;;7.30;99.90;;;;;;4992579;28;20046;-29
2021/12/29 05:16:51;;;;;;;38.63;17.60;;;7.20;99.90;;;;;;4976063;28;20095;-29
2021/12/29 05:19:17;;;;;;;36.13;17.90;;;7.20;99.90;;;;;;5008132;28;20056;-29
2021/12/29 05:21:43;;;;;;;31.80;18.00;;;7.30;99.90;;;;;;4991622;28;20092;-29
2021/12/29 05:24:09;;;;;;;38.23;17.80;;;7.30;99.90;;;;;;4993712;28;20522;-29
2021/12/29 05:26:35;;;;;;;32.77;17.53;;;7.30;99.90;;;;;;4975430;28;20133;-29
2021/12/29 05:29:01;;;;;;;35.87;17.90;;;7.30;99.90;;;;;;4986846;28;20394;-29
2021/12/29 05:31:27;;;;;;;32.53;18.63;;;7.30;99.90;;;;;;4989980;28;20050;-29
2021/12/29 05:33:54;;;;;;;31.80;17.70;;;7.20;99.90;;;;;;4988428;28;20497;-29
2021/12/29 05:36:19;;;;;;;40.33;17.50;;;7.30;99.90;;;;;;4975270;28;20077;-29
2021/12/29 05:38:45;;;;;;;34.30;17.17;;;7.30;99.90;;;;;;4986405;28;20085;-29
2021/12/29 05:41:11;;;;;;;33.37;17.77;;;7.30;99.90;;;;;;5007516;28;20401;-30
2021/12/29 05:43:37;;;;;;;37.73;18.47;;;7.30;99.90;;;;;;4990040;28;20050;-29
2021/12/29 05:46:02;;;;;;;35.97;17.53;;;7.30;99.90;;;;;;5008748;28;20045;-29
2021/12/29 05:48:28;;;;;;;36.53;17.40;;;7.40;99.90;;;;;;4992061;28;20050;-29
2021/12/29 05:50:54;;;;;;;34.87;16.17;;;7.30;99.90;;;;;;4991406;28;20072;-29
2021/12/29 05:53:20;;;;;;;36.27;16.63;;;7.30;99.90;;;;;;5007698;28;20643;-29
2021/12/29 05:55:45;;;;;;;33.33;16.57;;;7.30;99.90;;;;;;5008641;28;20195;-30
2021/12/29 05:58:11;;;;;;;32.03;16.47;;;7.30;99.90;;;;;;4973500;28;20053;-29
2021/12/29 06:00:38;;;;;;;31.40;16.17;;;7.30;99.90;;;;;;4995840;28;20041;-29
2021/12/29 06:03:04;;;;;;;32.20;17.80;;;7.30;99.90;;;;;;4990268;28;20053;-29
2021/12/29 06:05:29;;;;;;;34.27;17.40;;;7.20;99.90;;;;;;4992626;28;20042;-29
2021/12/29 06:07:55;;;;;;;29.40;16.83;;;7.30;99.90;;;;;;4972644;28;20046;-29
2021/12/29 06:10:21;;;;;;;32.53;17.93;;;7.30;99.90;;;;;;4997222;28;20120;-29
2021/12/29 06:12:47;;;;;;;39.07;16.73;;;7.30;99.90;;;;;;4987910;28;20125;-29
2021/12/29 06:15:13;;;;;;;33.13;17.57;;;7.30;99.90;;;;;;4999282;28;20057;-29
2021/12/29 06:17:40;;;;;;;29.50;17.73;;;7.30;99.90;;;;;;4991776;28;20764;-29
2021/12/29 06:20:08;;;;;;;30.53;18.17;;;7.30;99.90;;;;;;5008537;28;20045;-29
2021/12/29 06:22:34;;;;;;;35.90;17.70;;;7.30;99.90;;;;;;5005472;28;20049;-29
2021/12/29 06:25:00;;;;;;;33.97;17.83;;;7.30;99.90;;;;;;4971611;28;20398;-29
2021/12/29 06:27:26;;;;;;;39.60;18.73;;;7.30;99.90;;;;;;4972306;28;20046;-29
2021/12/29 06:29:52;;;;;;;34.57;16.80;;;7.30;99.90;;;;;;4988649;28;20121;-29
2021/12/29 06:32:18;;;;;;;34.53;16.50;;;7.30;99.90;;;;;;4970242;28;20133;-29
2021/12/29 06:34:44;;;;;;;38.27;19.10;;;7.30;99.90;;;;;;4988600;28;20050;-28
2021/12/29 06:37:12;;;;;;;37.17;18.87;;;7.30;99.90;;;;;;4948246;28;20105;-29
2021/12/29 06:39:43;;;;;;;41.67;19.20;;;7.40;99.90;;;;;;4979837;28;20071;-29
2021/12/29 06:42:09;;;;;;;43.17;19.25;;;7.40;99.90;;;;;;4968094;28;20050;-29
2021/12/29 06:44:36;;;;;;;39.77;19.30;;;7.30;99.90;;;;;;4968869;28;20487;-29
2021/12/29 06:47:02;;;;;;;43.93;20.70;;;7.30;99.90;;;;;;4961197;28;20490;-29
2021/12/29 06:49:28;;;;;;;45.40;20.53;;;7.30;99.90;;;;;;4991096;28;20038;-29
2021/12/29 06:51:54;;;;;;;59.30;20.90;;;7.40;99.90;;;;;;4992422;28;20153;-29
2021/12/29 06:54:20;;;;;;;44.57;20.33;;;7.30;99.90;;;;;;4991506;28;20468;-29
2021/12/29 06:56:45;;;;;;;50.40;21.47;;;7.40;99.90;;;;;;4975649;28;20335;-29
2021/12/29 06:59:11;;;;;;;54.73;22.93;;;7.30;99.90;;;;;;4989851;28;20062;-29
2021/12/29 07:01:37;;;;;;;54.87;23.03;;;7.40;99.90;;;;;;4974581;28;20413;-29
2021/12/29 07:04:03;;;;;;;54.43;22.20;;;7.40;99.90;;;;;;4991164;28;20058;-29
2021/12/29 07:06:29;;;;;;;56.40;23.53;;;7.40;99.90;;;;;;4980291;28;20081;-29
2021/12/29 07:08:55;;;;;;;54.97;23.70;;;7.40;99.90;;;;;;4988337;28;20078;-29
2021/12/29 07:11:20;;;;;;;58.07;22.87;;;7.40;99.90;;;;;;4991834;28;20038;-30
2021/12/29 07:13:46;;;;;;;47.43;22.57;;;7.40;99.90;;;;;;4991183;28;20053;-29
2021/12/29 07:16:12;;;;;;;53.10;23.23;;;7.40;99.90;;;;;;4982928;28;20050;-29
2021/12/29 07:18:38;;;;;;;59.97;23.03;;;7.40;99.90;;;;;;4983431;28;20042;-29
2021/12/29 07:21:04;;;;;;;60.90;23.30;;;7.40;99.90;;;;;;4991862;28;20061;-29
2021/12/29 07:23:30;;;;;;;52.50;22.77;;;7.40;99.90;;;;;;4989482;28;20050;-29
2021/12/29 07:25:55;;;;;;;59.93;21.80;;;7.40;99.90;;;;;;4991838;28;20134;-29
2021/12/29 07:28:21;;;;;;;67.03;22.70;;;7.40;99.90;;;;;;4975413;28;20494;-29
2021/12/29 07:30:47;;;;;;;58.00;22.87;;;7.40;99.90;;;;;;4991587;28;20081;-29
2021/12/29 07:33:14;;;;;;;59.27;22.43;;;7.40;99.90;;;;;;4990939;28;20165;-29
2021/12/29 07:35:40;;;;;;;59.17;22.90;;;7.40;99.90;;;;;;4991889;28;20149;-29
2021/12/29 07:38:05;;;;;;;52.90;21.97;;;7.40;99.90;;;;;;4977755;28;20272;-29
2021/12/29 07:40:32;;;;;;;52.83;21.83;;;7.40;99.90;;;;;;5011486;28;20378;-29
2021/12/29 07:42:58;;;;;;;48.13;21.33;;;7.40;99.90;;;;;;5009827;28;20042;-29
2021/12/29 07:45:25;;;;;;;57.63;20.87;;;7.50;99.90;;;;;;5011238;28;20065;-29
2021/12/29 07:47:51;;;;;;;50.03;20.40;;;7.50;99.90;;;;;;4994600;28;20460;-30
2021/12/29 07:50:19;;;;;;;44.97;19.73;;;7.50;99.90;;;;;;5011024;28;20050;-29
2021/12/29 07:52:48;;;;;;;49.40;19.73;;;7.50;99.90;;;;;;5010232;28;20057;-29
2021/12/29 07:55:18;;;;;;;48.67;18.77;;;7.50;99.90;;;;;;4992712;28;20057;-29
2021/12/29 07:57:44;;;;;;;50.03;18.03;;;7.50;99.90;;;;;;4994494;28;20048;-29
2021/12/29 08:00:11;;;;;;;40.23;17.80;;;7.50;99.90;;;;;;4992272;28;20050;-29
2021/12/29 08:02:38;;;;;;;35.73;16.50;;;7.50;99.90;;;;;;5009578;28;20532;-29
2021/12/29 08:05:05;;;;;;;43.67;18.37;;;7.50;99.90;;;;;;5010118;28;20049;-29
2021/12/29 08:07:31;;;;;;;44.03;17.03;;;7.50;99.90;;;;;;4976620;28;20134;-29
2021/12/29 08:09:56;;;;;;;39.53;16.97;;;7.60;99.90;;;;;;5010663;28;20156;-29
2021/12/29 08:12:22;;;;;;;37.93;16.73;;;7.50;99.90;;;;;;5009670;28;20053;-29
2021/12/29 08:14:49;;;;;;;40.90;17.03;;;7.50;99.90;;;;;;5009983;28;20128;-29
2021/12/29 08:17:15;;;;;;;43.90;17.30;;;7.50;99.90;;;;;;4994107;28;20065;-30
2021/12/29 08:19:42;;;;;;;40.93;16.67;;;7.50;99.90;;;;;;4975846;28;20046;-29
2021/12/29 08:22:07;;;;;;;37.00;16.30;;;7.50;99.90;;;;;;5009694;28;20532;-29
2021/12/29 08:24:33;;;;;;;41.03;17.73;;;7.60;99.90;;;;;;4992833;28;20034;-29
2021/12/29 08:26:59;;;;;;;41.80;18.70;;;7.60;99.90;;;;;;4995028;28;20489;-29
2021/12/29 08:29:25;;;;;;;39.73;18.73;;;7.60;99.90;;;;;;5008752;28;20494;-29
2021/12/29 08:31:50;;;;;;;52.03;18.87;;;7.60;99.90;;;;;;5010247;28;20493;-29
2021/12/29 08:34:16;;;;;;;44.10;20.43;;;7.60;99.90;;;;;;5009088;28;20494;-30
2021/12/29 08:36:42;;;;;;;52.50;21.33;;;7.60;99.90;;;;;;4995857;28;20482;-29
2021/12/29 08:39:08;;;;;;;48.57;19.77;;;7.60;99.90;;;;;;5007990;28;20421;-29
2021/12/29 08:41:34;;;;;;;51.43;20.53;;;7.60;99.90;;;;;;5010049;28;20058;-30
2021/12/29 08:44:00;;;;;;;48.83;21.70;;;7.60;99.90;;;;;;5008963;28;20046;-29
2021/12/29 08:46:28;;;;;;;59.37;22.13;;;7.60;99.90;;;;;;4996914;28;21116;-30
2021/12/29 08:48:53;;;;;;;54.50;21.03;;;7.70;99.90;;;;;;5004974;28;20417;-29
2021/12/29 08:51:19;;;;;;;58.90;21.87;;;7.60;99.90;;;;;;5008495;28;20084;-29
2021/12/29 08:53:46;;;;;;;65.47;21.87;;;7.60;99.90;;;;;;5008885;28;20050;-29
2021/12/29 08:56:14;;;;;;;53.87;22.27;;;7.60;99.90;;;;;;5001229;28;20096;-29
2021/12/29 08:58:40;;;;;;;65.60;21.70;;;7.60;99.90;;;;;;4988276;28;20583;-29
2021/12/29 09:01:06;;;;;;;78.07;22.10;;;7.60;99.90;;;;;;4998774;28;20065;-29
2021/12/29 09:03:32;;;;;;;72.67;22.90;;;7.60;99.90;;;;;;5005817;28;20137;-29
2021/12/29 09:05:58;;;;;;;67.07;20.73;;;7.60;99.90;;;;;;5006912;28;20081;-29
2021/12/29 09:08:23;;;;;;;70.70;23.73;;;7.60;99.90;;;;;;4990538;28;20084;-29
2021/12/29 09:10:49;;;;;;;58.03;20.77;;;7.60;99.90;;;;;;5005549;28;20507;-29
2021/12/29 09:13:15;;;;;;;61.20;21.40;;;7.60;99.90;;;;;;4987491;28;20137;-29
2021/12/29 09:15:42;;;;;;;52.80;21.10;;;7.60;99.90;;;;;;5005828;28;20042;-29
2021/12/29 09:18:08;;;;;;;56.43;20.20;;;7.60;99.90;;;;;;4971919;28;20041;-29
2021/12/29 09:20:37;;;;;;;44.30;21.17;;;7.60;99.90;;;;;;5006637;28;20069;-29
2021/12/29 09:23:08;;;;;;;60.00;18.80;;;7.60;99.90;;;;;;5005640;28;20132;-29
2021/12/29 09:25:36;;;;;;;42.42;18.02;;;7.70;99.90;;;;;;4987780;28;20058;-29
2021/12/29 09:28:03;;;;;;;50.47;18.13;;;7.60;99.90;;;;;;4988018;28;20042;-29
2021/12/29 09:30:31;;;;;;;48.60;18.50;;;7.60;99.90;;;;;;5005785;28;20105;-29
2021/12/29 09:32:57;;;;;;;42.63;16.67;;;7.70;99.90;;;;;;5004884;28;20053;-29
2021/12/29 09:35:23;;;;;;;48.00;16.37;;;7.60;99.90;;;;;;5005396;28;20127;-29
2021/12/29 09:37:50;;;;;;;44.23;16.60;;;7.70;99.90;;;;;;4985873;28;20058;-29
2021/12/29 09:40:18;;;;;;;40.43;16.67;;;7.70;99.90;;;;;;4987941;28;20061;-30
2021/12/29 09:42:45;;;;;;;41.27;15.30;;;7.70;99.90;;;;;;5002162;28;20053;-29
2021/12/29 09:45:13;;;;;;;36.53;14.93;;;7.70;99.90;;;;;;5005368;28;20108;-29
2021/12/29 09:47:39;;;;;;;37.27;15.17;;;7.70;99.90;;;;;;4989538;28;20149;-29
2021/12/29 09:50:13;;;;;;;40.53;15.70;;;7.70;99.90;;;;;;5006311;28;20045;-29
2021/12/29 09:52:39;;;;;;;39.00;15.03;;;7.70;99.90;;;;;;5005845;28;20049;-29
2021/12/29 09:55:10;;;;;;;36.40;14.27;;;7.80;99.90;;;;;;5005952;28;20050;-29
2021/12/29 09:57:44;;;;;;;33.28;14.05;;;7.70;99.90;;;;;;4958931;28;20410;-29
2021/12/29 10:00:20;;;;;;;32.77;13.60;;;7.80;99.90;;;;;;4988043;28;20069;-29
2021/12/29 10:02:47;;;;;;;32.87;14.77;;;7.80;99.90;;;;;;4985878;28;20043;-29
2021/12/29 10:05:12;;;;;;;37.27;14.63;;;7.80;99.90;;;;;;5002955;28;20134;-29
2021/12/29 10:07:38;;;;;;;36.60;15.03;;;7.90;99.90;;;;;;4963026;28;20077;-29
2021/12/29 10:10:16;;;;;;;31.70;14.90;;;7.90;99.90;;;;;;4986630;28;20046;-29
2021/12/29 10:12:43;;;;;;;37.73;14.37;;;7.90;99.90;;;;;;5001541;28;20396;-30
2021/12/29 10:15:09;;;;;;;34.97;14.37;;;7.90;99.90;;;;;;5004948;28;20050;-29
2021/12/29 10:17:35;;;;;;;33.57;14.70;;;7.90;99.90;;;;;;4985187;28;20386;-29
2021/12/29 10:20:08;;;;;;;32.33;14.73;;;7.90;99.90;;;;;;5004837;28;20197;-29
2021/12/29 10:22:34;;;;;;;30.57;14.50;;;7.90;99.90;;;;;;5003578;28;20564;-29
2021/12/29 10:25:07;;;;;;;29.50;14.03;;;8.00;99.90;;;;;;5003544;28;20061;-29
2021/12/29 10:27:34;;;;;;;29.70;15.23;;;8.00;99.90;;;;;;4985448;28;20050;-29
2021/12/29 10:30:02;;;;;;;31.73;14.67;;;8.00;99.90;;;;;;5004257;28;20054;-30
2021/12/29 10:32:28;;;;;;;30.60;13.17;;;8.00;99.90;;;;;;5003993;28;20053;-29
2021/12/29 10:34:54;;;;;;;27.40;13.20;;;8.10;99.90;;;;;;5001842;28;20041;-29
2021/12/29 10:37:23;;;;;;;31.10;12.50;;;8.00;99.90;;;;;;4976521;28;20069;-29
2021/12/29 10:39:52;;;;;;;26.53;12.17;;;8.10;99.90;;;;;;4975413;28;20055;-30
2021/12/29 10:42:21;;;;;;;26.57;12.37;;;8.10;99.90;;;;;;4955479;28;20113;-29
2021/12/29 10:44:50;;;;;;;25.70;11.60;;;8.00;99.90;;;;;;4975874;28;20053;-29
2021/12/29 10:47:24;;;;;;;28.40;11.53;;;8.10;99.90;;;;;;4964455;28;20038;-29
2021/12/29 10:50:00;;;;;;;25.53;11.90;;;8.10;99.90;;;;;;4967125;28;20078;-29
2021/12/29 10:52:34;;;;;;;27.23;11.70;;;8.10;99.90;;;;;;4980325;28;20047;-29
2021/12/29 10:55:03;;;;;;;29.20;11.47;;;8.10;99.90;;;;;;4982637;28;20046;-29
2021/12/29 10:57:28;;;;;;;23.03;11.47;;;8.10;99.90;;;;;;4967354;28;20417;-29
2021/12/29 10:59:57;;;;;;;24.53;12.13;;;8.10;99.90;;;;;;4982074;28;20099;-29
2021/12/29 11:02:35;;;;;;;25.40;11.20;;;8.20;99.90;;;;;;4963517;28;20057;-29
2021/12/29 11:05:04;;;;;;;26.20;10.57;;;8.10;99.90;;;;;;4972501;28;20045;-29
2021/12/29 11:07:32;;;;;;;23.60;10.77;;;8.10;99.90;;;;;;4964237;28;20042;-30
2021/12/29 11:10:10;;;;;;;30.30;10.50;;;8.10;99.90;;;;;;4983594;28;20050;-29
2021/12/29 11:12:53;;;;;;;25.73;10.23;;;8.10;99.90;;;;;;4962718;28;20046;-30
2021/12/29 11:15:24;;;;;;;25.90;9.73;;;8.10;99.90;;;;;;4981963;28;20042;-29
2021/12/29 11:17:50;;;;;;;;;;;8.10;99.90;;;;;;4951556;28;20046;-29
2021/12/29 11:20:19;;;;;;;27.70;9.70;;;8.10;99.90;;;;;;4983367;28;20064;-30
2021/12/29 11:22:45;;;;;;;22.47;8.90;;;8.10;99.90;;;;;;4981318;28;20309;-30
2021/12/29 11:25:11;;;;;;;26.17;9.50;;;8.10;99.90;;;;;;4984856;28;20042;-29
2021/12/29 11:27:38;;;;;;;23.83;8.33;;;8.10;99.90;;;;;;4968883;28;20526;-29
2021/12/29 11:30:11;;;;;;;31.93;8.50;;;8.10;99.90;;;;;;4967050;28;20050;-30
2021/12/29 11:32:47;;;;;;;21.00;8.13;;;8.10;99.90;;;;;;4984135;28;20053;-29
2021/12/29 11:35:17;;;;;;;29.63;9.70;;;8.10;99.90;;;;;;4986292;28;20133;-29
2021/12/29 11:37:49;;;;;;;23.57;9.10;;;8.10;99.90;;;;;;4981053;28;20057;-29
2021/12/29 11:40:19;;;;;;;22.60;8.73;;;8.10;99.90;;;;;;5005052;28;20112;-30
2021/12/29 11:42:44;;;;;;;25.07;9.10;;;8.10;99.90;;;;;;4964816;28;20101;-29
2021/12/29 11:45:12;;;;;;;24.30;9.43;;;8.10;99.90;;;;;;4990965;28;20448;-29
2021/12/29 11:47:38;;;;;;;19.87;8.93;;;8.10;99.90;;;;;;4993053;28;20061;-29
2021/12/29 11:50:06;;;;;;;23.47;8.47;;;8.10;99.90;;;;;;4993863;28;20050;-29
2021/12/29 11:52:59;;;;;;;26.20;9.20;;;8.10;99.90;;;;;;4990107;28;20057;-30
2021/12/29 11:55:30;;;;;;;29.83;8.37;;;8.10;99.90;;;;;;4990277;28;20129;-29
2021/12/29 11:58:07;;;;;;;33.58;8.73;;;8.20;99.90;;;;;;4975398;28;20034;-29
2021/12/29 12:00:33;;;;;;;28.53;8.23;;;8.20;99.90;;;;;;4999216;28;20058;-29
2021/12/29 12:03:09;;;;;;;31.57;9.20;;;8.10;99.90;;;;;;4996518;28;20100;-29
2021/12/29 12:05:38;;;;;;;27.67;10.13;;;8.10;99.90;;;;;;4996912;28;20041;-29
2021/12/29 12:08:15;;;;;;;28.33;10.60;;;8.20;99.90;;;;;;4975455;28;20058;-29
2021/12/29 12:10:41;;;;;;;29.13;10.97;;;8.20;99.90;;;;;;4995676;28;20048;-29
2021/12/29 12:13:23;;;;;;;29.40;10.27;;;8.20;99.90;;;;;;4999473;28;20049;-29
2021/12/29 12:15:49;;;;;;;;;;;8.10;99.90;;;;;;4992062;28;20045;-30
2021/12/29 12:18:15;;;;;;;30.77;10.13;;;8.20;99.90;;;;;;4976996;28;20365;-29
2021/12/29 12:20:44;;;;;;;30.23;9.17;;;8.20;99.90;;;;;;4979195;28;20100;-29
2021/12/29 12:23:21;;;;;;;29.23;9.87;;;8.20;99.90;;;;;;4990007;28;20410;-30
2021/12/29 12:25:47;;;;;;;27.20;9.53;;;8.20;99.90;;;;;;4995373;28;20607;-30
2021/12/29 12:28:21;;;;;;;33.70;10.03;;;8.30;99.90;;;;;;4982090;28;20092;-30
2021/12/29 12:30:49;;;;;;;25.37;9.80;;;8.30;99.90;;;;;;4978265;28;20038;-29
2021/12/29 12:33:23;;;;;;;33.40;11.27;;;8.30;99.90;;;;;;4993787;28;20464;-29
2021/12/29 12:35:51;;;;;;;27.57;10.93;;;8.30;99.90;;;;;;4992772;28;20475;-29
2021/12/29 12:38:29;;;;;;;33.90;12.07;;;8.30;99.90;;;;;;4963771;28;20092;-29
2021/12/29 12:41:06;;;;;;;31.93;10.57;;;8.30;99.90;;;;;;4975009;28;20042;-30
2021/12/29 12:43:34;;;;;;;30.33;10.50;;;8.30;99.90;;;;;;4974906;28;20057;-29
2021/12/29 12:46:00;;;;;;;23.30;8.83;;;8.30;99.90;;;;;;4973839;28;20046;-29